createdAt,value
2019-01-17T00:01:03.472Z,97933.41
2019-01-17T00:03:52.822Z,97922.92
2019-01-17T00:06:45.544Z,97920.46
2019-01-17T00:09:32.356Z,97920.09
2019-01-17T00:12:24.072Z,97913.91
2019-01-17T00:15:08.595Z,97900.92
2019-01-17T00:17:55.203Z,97912.53
2019-01-17T00:20:55.711Z,97910.56
2019-01-17T00:23:42.240Z,97910.19
2019-01-17T00:26:27.296Z,97917.14
2019-01-17T00:29:19.160Z,97909.83
2019-01-17T00:32:14.177Z,97912.74
2019-01-17T00:35:03.036Z,97899.34
2019-01-17T00:37:54.105Z,97902.16
2019-01-17T00:40:43.555Z,97900.28
2019-01-17T00:43:41.042Z,97897.39
2019-01-17T00:46:31.883Z,97899.55
2019-01-17T00:49:24.959Z,97898.42
2019-01-17T00:52:13.512Z,97891.48
2019-01-17T00:55:00.529Z,97890.01
2019-01-17T00:57:55.412Z,97893.45
2019-01-17T01:01:05.736Z,97888.87
2019-01-17T01:04:02.257Z,97888.79
2019-01-17T01:07:03.118Z,97892.64
2019-01-17T01:09:57.302Z,97893.77
2019-01-17T01:12:43.503Z,97894.13
2019-01-17T01:15:30.939Z,97887.85
2019-01-17T01:18:18.710Z,97893.30
2019-01-17T01:21:06.531Z,97889.73
2019-01-17T01:24:00.822Z,97887.48
2019-01-17T01:26:48.540Z,97897.50
2019-01-17T01:29:49.546Z,97888.42
2019-01-17T01:32:46.569Z,97899.75
2019-01-17T01:35:35.011Z,97903.49
2019-01-17T01:38:23.851Z,97909.97
2019-01-17T01:41:20.050Z,97899.28
2019-01-17T01:44:06.721Z,97905.73
2019-01-17T01:46:53.486Z,97892.25
2019-01-17T01:49:42.036Z,97897.50
2019-01-17T01:52:50.143Z,97900.96
2019-01-17T01:55:24.552Z,97895.80
2019-01-17T01:57:54.197Z,97880.91
2019-01-17T02:00:25.134Z,97903.97
2019-01-17T02:02:54.759Z,97893.56
2019-01-17T02:05:25.439Z,97899.07
2019-01-17T02:08:07.395Z,97899.47
2019-01-17T02:10:36.441Z,97917.44
2019-01-17T02:13:06.271Z,97914.98
2019-01-17T02:15:36.335Z,97924.72
2019-01-17T02:18:05.589Z,97915.83
2019-01-17T02:20:40.890Z,97920.61
2019-01-17T02:23:10.118Z,97917.30
2019-01-17T02:25:52.796Z,97918.23
2019-01-17T02:28:22.897Z,97924.16
2019-01-17T02:30:52.976Z,97921.80
2019-01-17T02:33:22.245Z,97917.40
2019-01-17T02:35:51.497Z,97918.63
2019-01-17T02:38:20.842Z,97928.35
2019-01-17T02:40:53.019Z,97933.13
2019-01-17T02:43:22.854Z,97929.66
2019-01-17T02:45:57.501Z,97923.86
2019-01-17T02:48:30.472Z,97926.39
2019-01-17T02:51:02.834Z,97918.69
2019-01-17T02:53:34.189Z,97931.51
2019-01-17T02:56:03.752Z,97923.38
2019-01-17T02:58:33.870Z,97923.92
2019-01-17T03:01:04.143Z,97924.61
2019-01-17T03:03:35.415Z,97922.17
2019-01-17T03:06:11.674Z,97932.09
2019-01-17T03:08:41.837Z,97923.48
2019-01-17T03:11:12.901Z,97931.78
2019-01-17T03:13:42.153Z,97937.13
2019-01-17T03:16:11.425Z,97935.19
2019-01-17T03:18:41.501Z,97934.87
2019-01-17T03:21:10.765Z,97930.27
2019-01-17T03:23:39.997Z,97932.61
2019-01-17T03:26:09.271Z,97934.11
2019-01-17T03:28:39.157Z,97941.78
2019-01-17T03:31:09.806Z,97928.11
2019-01-17T03:33:39.686Z,97932.89
2019-01-17T03:36:13.340Z,97935.31
2019-01-17T03:38:46.018Z,97941.13
2019-01-17T03:41:15.819Z,97940.71
2019-01-17T03:43:48.410Z,97940.71
2019-01-17T03:46:17.963Z,97946.14
2019-01-17T03:48:47.319Z,97939.12
2019-01-17T03:51:16.674Z,97939.50
2019-01-17T03:53:47.459Z,97944.11
2019-01-17T03:56:21.735Z,97948.80
2019-01-17T03:58:52.404Z,97944.67
2019-01-17T04:01:27.230Z,97941.06
2019-01-17T04:03:57.548Z,97935.16
2019-01-17T04:06:27.413Z,97935.51
2019-01-17T04:08:56.934Z,97933.66
2019-01-17T04:11:27.188Z,97939.06
2019-01-17T04:13:56.723Z,97938.91
2019-01-17T04:16:26.254Z,97933.26
2019-01-17T04:18:57.447Z,97932.52
2019-01-17T04:21:26.540Z,97929.42
2019-01-17T04:23:56.049Z,97932.27
2019-01-17T04:26:25.297Z,97924.19
2019-01-17T04:28:54.881Z,97921.88
2019-01-17T04:31:25.145Z,97926.34
2019-01-17T04:33:55.016Z,97929.08
2019-01-17T04:36:26.898Z,97921.69
2019-01-17T04:38:56.929Z,97914.29
2019-01-17T04:41:26.213Z,97913.92
2019-01-17T04:43:55.578Z,97920.00
2019-01-17T04:46:25.198Z,97916.44
2019-01-17T04:48:54.929Z,97919.25
2019-01-17T04:51:26.776Z,97922.91
2019-01-17T04:53:57.555Z,97915.13
2019-01-17T04:56:27.916Z,97914.66
2019-01-17T04:58:57.447Z,97918.50
2019-01-17T05:01:26.661Z,97922.43
2019-01-17T05:03:56.263Z,97918.31
2019-01-17T05:06:25.765Z,97921.61
2019-01-17T05:08:55.615Z,97917.38
2019-01-17T05:11:25.286Z,97920.46
2019-01-17T05:13:54.844Z,97922.23
2019-01-17T05:16:26.530Z,97926.48
2019-01-17T05:18:56.465Z,97926.77
2019-01-17T05:21:25.670Z,97923.02
2019-01-17T05:23:55.635Z,97918.25
2019-01-17T05:26:26.436Z,97923.92
2019-01-17T05:28:58.189Z,97914.38
2019-01-17T05:31:28.999Z,97908.14
2019-01-17T05:33:59.802Z,97909.91
2019-01-17T05:36:29.358Z,97920.41
2019-01-17T05:38:59.931Z,97917.00
2019-01-17T05:41:29.283Z,97920.41
2019-01-17T05:43:59.361Z,97900.18
2019-01-17T05:46:29.616Z,97911.13
2019-01-17T05:48:58.881Z,97918.43
2019-01-17T05:51:28.890Z,97918.43
2019-01-17T05:53:58.463Z,97910.28
2019-01-17T05:56:28.301Z,97918.98
2019-01-17T05:58:58.950Z,97912.90
2019-01-17T06:01:30.113Z,97914.42
2019-01-17T06:04:00.223Z,97917.80
2019-01-17T06:06:33.054Z,97922.66
2019-01-17T06:09:01.864Z,97922.09
2019-01-17T06:11:31.391Z,97933.42
2019-01-17T06:14:00.633Z,97927.07
2019-01-17T06:16:30.425Z,97932.48
2019-01-17T06:19:00.316Z,97939.34
2019-01-17T06:21:30.288Z,97924.55
2019-01-17T06:23:59.562Z,97924.19
2019-01-17T06:26:29.055Z,97927.37
2019-01-17T06:28:58.544Z,97916.80
2019-01-17T06:31:28.098Z,97908.09
2019-01-17T06:33:58.629Z,97910.70
2019-01-17T06:36:28.242Z,97908.09
2019-01-17T06:38:57.511Z,97907.52
2019-01-17T06:41:27.013Z,97911.06
2019-01-17T06:43:56.270Z,97911.53
2019-01-17T06:46:25.534Z,97897.95
2019-01-17T06:48:54.792Z,97899.19
2019-01-17T06:51:24.432Z,97896.72
2019-01-17T06:53:54.453Z,97900.93
2019-01-17T06:56:25.561Z,97894.47
2019-01-17T06:58:55.526Z,97901.97
2019-01-17T07:01:26.265Z,97901.41
2019-01-17T07:03:58.451Z,97894.09
2019-01-17T07:06:29.057Z,97903.00
2019-01-17T07:09:01.966Z,97902.81
2019-01-17T07:11:32.324Z,97898.80
2019-01-17T07:14:01.757Z,97901.51
2019-01-17T07:16:31.791Z,97915.45
2019-01-17T07:19:03.268Z,97913.11
2019-01-17T07:21:32.535Z,97905.16
2019-01-17T07:24:02.723Z,97905.64
2019-01-17T07:26:33.325Z,97906.37
2019-01-17T07:29:02.861Z,97910.49
2019-01-17T07:31:32.981Z,97905.16
2019-01-17T07:34:02.503Z,97905.06
2019-01-17T07:36:32.393Z,97906.47
2019-01-17T07:39:03.902Z,97903.38
2019-01-17T07:41:33.195Z,97899.19
2019-01-17T07:44:03.530Z,97905.43
2019-01-17T07:46:36.565Z,97910.88
2019-01-17T07:49:07.710Z,97912.66
2019-01-17T07:51:38.111Z,97908.73
2019-01-17T07:54:11.524Z,97921.91
2019-01-17T07:56:51.015Z,97927.45
2019-01-17T07:59:26.250Z,97907.70
2019-01-17T08:01:58.956Z,97894.09
2019-01-17T08:04:55.451Z,97872.19
2019-01-17T08:07:31.780Z,97878.09
2019-01-17T08:10:02.737Z,97872.85
2019-01-17T08:12:38.400Z,97881.84
2019-01-17T08:15:09.242Z,97904.13
2019-01-17T08:17:44.140Z,97906.56
2019-01-17T08:20:19.311Z,97914.04
2019-01-17T08:22:55.114Z,97915.62
2019-01-17T08:25:24.474Z,97905.03
2019-01-17T08:27:55.987Z,97896.64
2019-01-17T08:30:28.118Z,97897.02
2019-01-17T08:33:01.242Z,97897.11
2019-01-17T08:35:31.324Z,97919.20
2019-01-17T08:38:00.953Z,97923.70
2019-01-17T08:40:35.499Z,97920.98
2019-01-17T08:43:04.734Z,97915.34
2019-01-17T08:45:34.241Z,97907.03
2019-01-17T08:48:04.933Z,97904.59
2019-01-17T08:50:41.839Z,97902.06
2019-01-17T08:53:14.705Z,97904.69
2019-01-17T08:55:44.164Z,97904.69
2019-01-17T08:58:14.470Z,97902.23
2019-01-17T09:00:45.598Z,97906.02
2019-01-17T09:03:21.887Z,97905.27
2019-01-17T09:05:51.865Z,97912.37
2019-01-17T09:08:24.582Z,97908.34
2019-01-17T09:10:57.260Z,97907.88
2019-01-17T09:13:35.165Z,97907.98
2019-01-17T09:16:07.956Z,97913.41
2019-01-17T09:18:38.686Z,97911.44
2019-01-17T09:21:20.861Z,97915.11
2019-01-17T09:23:51.317Z,97919.41
2019-01-17T09:26:20.563Z,97920.91
2019-01-17T09:28:49.843Z,97912.11
2019-01-17T09:31:20.852Z,97914.47
2019-01-17T09:33:55.665Z,97918.75
2019-01-17T09:36:24.978Z,97922.70
2019-01-17T09:38:54.605Z,97913.89
2019-01-17T09:41:23.871Z,97913.23
2019-01-17T09:43:53.126Z,97907.97
2019-01-17T09:46:22.343Z,97905.72
2019-01-17T09:48:54.226Z,97904.87
2019-01-17T09:51:23.452Z,97915.55
2019-01-17T09:53:55.712Z,97907.41
2019-01-17T09:56:26.796Z,97912.38
2019-01-17T09:58:58.861Z,97910.39
2019-01-17T10:01:28.110Z,97914.27
2019-01-17T10:03:59.213Z,97910.77
2019-01-17T10:06:38.267Z,97902.52
2019-01-17T10:09:10.776Z,97902.72
2019-01-17T10:11:59.579Z,97910.87
2019-01-17T10:14:30.316Z,97897.80
2019-01-17T10:17:28.412Z,97894.70
2019-01-17T10:20:36.085Z,97883.55
2019-01-17T10:23:42.301Z,97878.78
2019-01-17T10:26:44.200Z,97883.47
2019-01-17T10:30:09.724Z,97883.67
2019-01-17T10:33:02.817Z,97872.05
2019-01-17T10:35:56.806Z,97866.18
2019-01-17T10:38:55.287Z,97857.93
2019-01-17T10:42:15.475Z,97852.85
2019-01-17T10:45:30.580Z,97846.14
2019-01-17T10:48:22.802Z,97843.86
2019-01-17T10:51:34.123Z,97833.38
2019-01-17T10:54:45.579Z,97832.11
2019-01-17T10:57:27.831Z,97818.27
2019-01-17T11:00:37.859Z,97812.91
2019-01-17T11:03:24.913Z,97800.11
2019-01-17T11:06:22.209Z,97791.94
2019-01-17T11:09:31.107Z,97782.34
2019-01-17T11:12:37.025Z,97778.39
2019-01-17T11:15:22.656Z,97774.59
2019-01-17T11:18:24.335Z,97772.19
2019-01-17T11:22:04.678Z,97769.13
2019-01-17T11:25:07.828Z,97771.09
2019-01-17T11:28:10.664Z,97774.22
2019-01-17T11:31:21.034Z,97759.97
2019-01-17T11:34:27.050Z,97762.81
2019-01-17T11:37:34.408Z,97762.09
2019-01-17T11:40:43.889Z,97754.93
2019-01-17T11:43:56.787Z,97757.81
2019-01-17T11:46:46.431Z,97755.86
2019-01-17T11:49:56.871Z,97762.07
2019-01-17T11:53:02.432Z,97757.91
2019-01-17T11:56:08.153Z,97754.91
2019-01-17T11:59:09.007Z,97738.19
2019-01-17T12:02:39.389Z,97733.29
2019-01-17T12:05:09.708Z,97729.20
2019-01-17T12:07:39.101Z,97738.47
2019-01-17T12:10:08.969Z,97722.49
2019-01-17T12:12:38.515Z,97722.55
2019-01-17T12:15:09.272Z,97721.09
2019-01-17T12:17:38.786Z,97724.81
2019-01-17T12:20:09.172Z,97719.55
2019-01-17T12:22:38.413Z,97712.14
2019-01-17T12:25:07.930Z,97707.61
2019-01-17T12:27:42.463Z,97709.77
2019-01-17T12:30:13.007Z,97730.31
2019-01-17T12:32:42.280Z,97706.72
2019-01-17T12:35:12.926Z,97715.25
2019-01-17T12:37:42.184Z,97695.89
2019-01-17T12:40:15.022Z,97691.57
2019-01-17T12:42:44.299Z,97713.96
2019-01-17T12:45:13.877Z,97680.23
2019-01-17T12:47:43.705Z,97690.52
2019-01-17T12:50:17.141Z,97697.26
2019-01-17T12:52:47.475Z,97672.34
2019-01-17T12:55:17.475Z,97655.64
2019-01-17T12:57:46.750Z,97659.00
2019-01-17T13:00:20.496Z,97659.45
2019-01-17T13:02:50.866Z,97669.22
2019-01-17T13:05:21.153Z,97667.38
2019-01-17T13:07:50.776Z,97658.29
2019-01-17T13:10:20.455Z,97648.59
2019-01-17T13:12:49.688Z,97655.27
2019-01-17T13:15:21.204Z,97659.36
2019-01-17T13:17:50.744Z,97680.70
2019-01-17T13:20:19.998Z,97638.25
2019-01-17T13:22:49.220Z,97662.45
2019-01-17T13:25:21.110Z,97643.37
2019-01-17T13:27:50.771Z,97623.91
2019-01-17T13:30:23.109Z,97660.20
2019-01-17T13:32:53.494Z,97616.22
2019-01-17T13:35:23.093Z,97625.85
2019-01-17T13:37:54.134Z,97627.27
2019-01-17T13:40:23.434Z,97625.75
2019-01-17T13:42:53.231Z,97637.95
2019-01-17T13:45:22.587Z,97611.03
2019-01-17T13:47:52.575Z,97625.75
2019-01-17T13:50:22.235Z,97634.91
2019-01-17T13:52:54.221Z,97642.51
2019-01-17T13:55:24.012Z,97663.44
2019-01-17T13:57:53.588Z,97646.64
2019-01-17T14:00:24.476Z,97674.99
2019-01-17T14:02:56.010Z,97669.84
2019-01-17T14:05:26.251Z,97662.22
2019-01-17T14:07:55.481Z,97667.23
2019-01-17T14:10:25.054Z,97674.17
2019-01-17T14:12:54.586Z,97680.48
2019-01-17T14:15:30.381Z,97690.86
2019-01-17T14:18:00.380Z,97718.53
2019-01-17T14:20:31.005Z,97727.92
2019-01-17T14:23:00.255Z,97753.27
2019-01-17T14:25:30.875Z,97744.89
2019-01-17T14:28:00.125Z,97736.66
2019-01-17T14:30:31.649Z,97747.32
2019-01-17T14:33:00.875Z,97760.87
2019-01-17T14:35:30.769Z,97757.16
2019-01-17T14:38:00.314Z,97767.06
2019-01-17T14:40:29.596Z,97761.55
2019-01-17T14:42:59.754Z,97777.72
2019-01-17T14:45:29.272Z,97784.85
2019-01-17T14:47:59.122Z,97785.86
2019-01-17T14:50:31.344Z,97797.55
2019-01-17T14:53:02.134Z,97805.03
2019-01-17T14:55:31.399Z,97808.61
2019-01-17T14:58:00.629Z,97817.51
2019-01-17T15:00:32.105Z,97829.84
2019-01-17T15:03:01.370Z,97832.78
2019-01-17T15:05:30.636Z,97838.77
2019-01-17T15:08:01.607Z,97850.66
2019-01-17T15:10:44.811Z,97847.47
2019-01-17T15:13:15.569Z,97861.66
2019-01-17T15:15:46.101Z,97867.08
2019-01-17T15:18:16.767Z,97866.70
2019-01-17T15:20:48.282Z,97879.43
2019-01-17T15:23:21.573Z,97890.47
2019-01-17T15:25:52.100Z,97897.58
2019-01-17T15:28:22.002Z,97900.08
2019-01-17T15:30:55.260Z,97888.51
2019-01-17T15:33:41.458Z,97896.80
2019-01-17T15:36:17.349Z,97899.52
2019-01-17T15:38:52.547Z,97895.80
2019-01-17T15:41:28.385Z,97889.34
2019-01-17T15:43:54.595Z,97898.77
2019-01-17T15:46:27.026Z,97895.86
2019-01-17T15:48:58.746Z,97909.90
2019-01-17T15:51:28.629Z,97910.27
2019-01-17T15:54:00.472Z,97905.47
2019-01-17T15:56:29.784Z,97902.66
2019-01-17T15:58:59.008Z,97910.46
2019-01-17T16:01:28.280Z,97912.11
2019-01-17T16:03:57.531Z,97908.09
2019-01-17T16:06:27.590Z,97916.38
2019-01-17T16:08:57.228Z,97909.31
2019-01-17T16:11:26.460Z,97916.74
2019-01-17T16:13:56.910Z,97921.00
2019-01-17T16:16:26.139Z,97925.86
2019-01-17T16:18:55.708Z,97929.97
2019-01-17T16:21:24.957Z,97938.39
2019-01-17T16:23:54.200Z,97947.03
2019-01-17T16:26:23.800Z,97961.84
2019-01-17T16:28:53.074Z,97960.11
2019-01-17T16:31:23.109Z,97966.94
2019-01-17T16:33:59.827Z,97973.19
2019-01-17T16:36:29.678Z,97992.61
2019-01-17T16:38:58.944Z,98001.34
2019-01-17T16:41:28.199Z,98008.84
2019-01-17T16:43:57.481Z,98016.31
2019-01-17T16:46:27.512Z,98021.23
2019-01-17T16:48:57.068Z,98028.78
2019-01-17T16:51:26.564Z,98029.92
2019-01-17T16:53:57.284Z,98040.48
2019-01-17T16:56:27.844Z,98052.72
2019-01-17T16:59:01.213Z,98051.88
2019-01-17T17:01:31.811Z,98041.17
2019-01-17T17:04:02.523Z,98051.12
2019-01-17T17:06:34.641Z,98063.33
2019-01-17T17:09:09.943Z,98065.80
2019-01-17T17:11:40.296Z,98079.81
2019-01-17T17:14:15.563Z,98076.03
2019-01-17T17:16:49.629Z,98085.34
2019-01-17T17:19:19.521Z,98089.66
2019-01-17T17:21:55.296Z,98091.68
2019-01-17T17:24:25.579Z,98092.58
2019-01-17T17:26:54.904Z,98093.04
2019-01-17T17:29:24.178Z,98090.42
2019-01-17T17:31:54.113Z,98097.67
2019-01-17T17:34:23.428Z,98098.44
2019-01-17T17:36:53.519Z,98096.59
2019-01-17T17:39:23.615Z,98100.84
2019-01-17T17:41:53.134Z,98108.53
2019-01-17T17:44:27.343Z,98129.16
2019-01-17T17:46:58.073Z,98118.83
2019-01-17T17:49:28.990Z,98139.00
2019-01-17T17:51:58.658Z,98147.48
2019-01-17T17:54:28.730Z,98151.88
2019-01-17T17:56:58.580Z,98137.70
2019-01-17T17:59:32.271Z,98146.31
2019-01-17T18:02:10.054Z,98143.78
2019-01-17T18:04:39.562Z,98155.84
2019-01-17T18:07:14.596Z,98160.02
2019-01-17T18:09:44.595Z,98163.19
2019-01-17T18:12:15.746Z,98156.73
2019-01-17T18:14:46.677Z,98161.03
2019-01-17T18:17:16.340Z,98162.80
2019-01-17T18:19:45.624Z,98163.94
2019-01-17T18:22:22.303Z,98166.55
2019-01-17T18:24:52.750Z,98173.64
2019-01-17T18:27:22.007Z,98189.11
2019-01-17T18:29:53.263Z,98209.93
2019-01-17T18:32:22.511Z,98211.31
2019-01-17T18:34:56.768Z,98193.92
2019-01-17T18:37:30.151Z,98223.27
2019-01-17T18:40:02.225Z,98226.83
2019-01-17T18:42:44.328Z,98248.06
2019-01-17T18:45:36.614Z,98262.84
2019-01-17T18:48:07.687Z,98274.73
2019-01-17T18:50:38.794Z,98269.75
2019-01-17T18:53:08.158Z,98283.53
2019-01-17T18:55:42.874Z,98288.23
2019-01-17T18:58:15.646Z,98294.77
2019-01-17T19:00:47.819Z,98298.08
2019-01-17T19:03:17.281Z,98295.02
2019-01-17T19:05:46.732Z,98292.47
2019-01-17T19:08:16.349Z,98296.73
2019-01-17T19:10:45.582Z,98309.26
2019-01-17T19:13:16.674Z,98315.78
2019-01-17T19:15:45.947Z,98313.73
2019-01-17T19:18:15.638Z,98315.43
2019-01-17T19:20:45.125Z,98317.86
2019-01-17T19:23:20.244Z,98316.34
2019-01-17T19:25:54.336Z,98314.94
2019-01-17T19:28:23.640Z,98321.33
2019-01-17T19:30:52.992Z,98326.34
2019-01-17T19:33:22.272Z,98329.87
2019-01-17T19:35:51.879Z,98326.38
2019-01-17T19:38:25.382Z,98334.31
2019-01-17T19:40:56.478Z,98334.91
2019-01-17T19:43:25.966Z,98338.13
2019-01-17T19:45:55.602Z,98339.43
2019-01-17T19:48:25.134Z,98342.88
2019-01-17T19:50:55.245Z,98358.41
2019-01-17T19:53:33.452Z,98360.88
2019-01-17T19:56:04.162Z,98362.30
2019-01-17T19:58:35.919Z,98361.91
2019-01-17T20:01:06.604Z,98366.00
2019-01-17T20:03:39.774Z,98362.37
2019-01-17T20:06:16.213Z,98371.97
2019-01-17T20:08:55.499Z,98377.18
2019-01-17T20:11:25.790Z,98380.78
2019-01-17T20:13:55.282Z,98379.57
2019-01-17T20:16:24.963Z,98375.72
2019-01-17T20:18:58.178Z,98377.03
2019-01-17T20:21:28.322Z,98385.96
2019-01-17T20:23:58.620Z,98394.31
2019-01-17T20:26:29.364Z,98392.69
2019-01-17T20:28:59.968Z,98387.59
2019-01-17T20:31:30.244Z,98388.45
2019-01-17T20:33:59.610Z,98397.65
2019-01-17T20:36:28.859Z,98403.81
2019-01-17T20:38:58.115Z,98412.25
2019-01-17T20:41:27.337Z,98411.25
2019-01-17T20:43:57.492Z,98415.23
2019-01-17T20:46:32.853Z,98417.05
2019-01-17T20:49:03.016Z,98413.70
2019-01-17T20:51:33.579Z,98417.02
2019-01-17T20:54:03.439Z,98423.28
2019-01-17T20:56:34.319Z,98426.31
2019-01-17T20:59:06.579Z,98430.98
2019-01-17T21:02:02.075Z,98435.88
2019-01-17T21:04:31.941Z,98440.99
2019-01-17T21:07:05.600Z,98445.04
2019-01-17T21:09:36.123Z,98450.45
2019-01-17T21:12:07.930Z,98459.88
2019-01-17T21:14:40.832Z,98462.45
2019-01-17T21:17:10.447Z,98468.48
2019-01-17T21:19:40.948Z,98471.52
2019-01-17T21:22:12.600Z,98478.86
2019-01-17T21:24:42.367Z,98471.84
2019-01-17T21:27:12.477Z,98479.15
2019-01-17T21:29:41.886Z,98475.05
2019-01-17T21:32:11.738Z,98475.23
2019-01-17T21:34:50.318Z,98483.19
2019-01-17T21:37:19.642Z,98485.50
2019-01-17T21:39:48.914Z,98494.94
2019-01-17T21:42:18.182Z,98489.75
2019-01-17T21:44:49.119Z,98500.89
2019-01-17T21:47:20.716Z,98505.59
2019-01-17T21:49:51.499Z,98508.01
2019-01-17T21:52:21.426Z,98509.56
2019-01-17T21:54:51.851Z,98518.57
2019-01-17T21:57:21.405Z,98528.55
2019-01-17T21:59:51.774Z,98538.92
2019-01-17T22:02:25.056Z,98537.62
2019-01-17T22:04:57.926Z,98549.48
2019-01-17T22:07:27.473Z,98547.00
2019-01-17T22:10:06.982Z,98563.89
2019-01-17T22:12:36.516Z,98564.73
2019-01-17T22:15:11.730Z,98570.59
2019-01-17T22:17:41.551Z,98583.58
2019-01-17T22:20:11.414Z,98572.91
2019-01-17T22:22:41.318Z,98570.17
2019-01-17T22:25:16.526Z,98572.38
2019-01-17T22:27:47.286Z,98571.14
2019-01-17T22:30:19.339Z,98581.91
2019-01-17T22:32:49.458Z,98585.55
2019-01-17T22:35:19.497Z,98589.41
2019-01-17T22:37:50.374Z,98581.42
2019-01-17T22:40:20.061Z,98583.73
2019-01-17T22:42:50.873Z,98590.50
2019-01-17T22:45:22.503Z,98587.03
2019-01-17T22:47:51.749Z,98584.58
2019-01-17T22:50:21.076Z,98588.37
2019-01-17T22:52:50.482Z,98582.09
2019-01-17T22:55:19.820Z,98593.71
2019-01-17T22:57:49.481Z,98602.78
2019-01-17T23:00:32.460Z,98601.48
2019-01-17T23:03:03.111Z,98603.66
2019-01-17T23:05:33.436Z,98605.36
2019-01-17T23:08:03.502Z,98609.28
2019-01-17T23:10:32.724Z,98608.97
2019-01-17T23:13:02.311Z,98615.55
2019-01-17T23:15:32.103Z,98606.27
2019-01-17T23:18:05.245Z,98609.55
2019-01-17T23:20:35.205Z,98617.19
2019-01-17T23:23:06.559Z,98609.42
2019-01-17T23:25:41.866Z,98621.34
2019-01-17T23:28:11.499Z,98617.12
2019-01-17T23:30:41.750Z,98621.95
2019-01-17T23:33:11.031Z,98630.63
2019-01-17T23:35:43.169Z,98638.11
2019-01-17T23:38:12.813Z,98642.88
2019-01-17T23:40:42.338Z,98652.91
2019-01-17T23:43:11.642Z,98645.99
2019-01-17T23:45:41.999Z,98657.81
2019-01-17T23:48:11.915Z,98643.53
2019-01-17T23:50:41.157Z,98642.00
2019-01-17T23:53:10.741Z,98643.11
2019-01-17T23:55:41.055Z,98633.41
2019-01-17T23:58:10.983Z,98645.55
